• Join FlightAware (Why Join?)
  • Login
  • US Flag 
07:20PM EST


 

Airport Tracker/Info


-or-


 

Live Flight TrackerFlight Track Log ✈ USC110 ✈ 12-Jun-2013 ✈ KCLT - KLCK

Flight Track Log - Related Links

Times and Time Zones

All times are in EDT time to prevent confusion due to time zone crossing. See the USC110 flight status page for this flight to view local times or setup timezone preferences in your user account.

Time Position Orientation Groundspeed Altitude Reporting Facility
EDT Latitude Longitude Course Direction KTS MPH feet Rate Location/Type
12:08AM 35.2081 -80.9528 317° Northwest 112 129 1,400  Level Atlanta Center
12:08AM 35.2186 -80.9650 317° Northwest 122 140 2,100 1,320 Climbing Atlanta Center
12:09AM 35.2461 -80.9742 345° North 104 120 3,300 1,080 Climbing Atlanta Center
12:11AM 35.2944 -80.9928 343° North 113 130 5,200 1,140 Climbing Atlanta Center
12:12AM 35.3261 -81.0094 337° Northwest 108 124 6,500 1,200 Climbing Atlanta Center
12:13AM 35.3494 -81.0189 342° North 108 124 7,700 720 Climbing Atlanta Center
12:14AM 35.3808 -81.0303 344° North 108 124 8,000 120 Climbing Atlanta Center
12:15AM 35.4231 -81.0417 348° North 133 153 8,000  Level Atlanta Center
12:16AM 35.4672 -81.0631 338° Northwest 157 181 8,000  Level Atlanta Center
12:17AM 35.5117 -81.0817 341° North 167 192 8,000  Level Atlanta Center
12:18AM 35.5558 -81.0981 343° North 167 192 8,000  Level Atlanta Center
12:19AM 35.6000 -81.1144 343° North 167 192 8,000  Level Atlanta Center
12:20AM 35.6442 -81.1358 339° North 167 192 8,000  Level Atlanta Center
12:21AM 35.6886 -81.1519 344° North 172 198 8,000  Level Atlanta Center
12:22AM 35.7328 -81.1708 341° North 172 198 8,000  Level Atlanta Center
12:23AM 35.7769 -81.1872 343° North 172 198 8,000  Level Atlanta Center
12:24AM 35.8211 -81.2036 341° North 172 198 8,100  Climbing Atlanta Center
12:25AM 35.8653 -81.2228 341° North 172 198 8,000 -60 Descending Atlanta Center
12:26AM 35.9094 -81.2417 341° North 172 198 8,000  Level Atlanta Center
12:27AM 35.9497 -81.2583 341° North 172 198 8,100  Climbing Atlanta Center
12:28AM 35.9939 -81.2772 341° North 167 192 8,000 -60 Descending Atlanta Center
12:29AM 36.0400 -81.2936 344° North 172 198 8,000  Level Atlanta Center
12:30AM 36.0864 -81.3128 342° North 172 198 8,000  Level Atlanta Center
12:31AM 36.1328 -81.3317 342° North 172 198 8,100  Climbing Atlanta Center
12:32AM 36.1789 -81.3506 342° North 172 198 8,000 -60 Descending Atlanta Center
12:33AM 36.2211 -81.3672 342° North 172 198 8,000  Level Atlanta Center
12:34AM 36.2717 -81.3889 341° North 172 198 8,000  Level Atlanta Center
12:35AM 36.3158 -81.4081 341° North 172 198 8,100  Climbing Atlanta Center
12:36AM 36.3578 -81.4247 342° North 172 198 8,000 -60 Descending Atlanta Center
12:37AM 36.4019 -81.4439 341° North 172 198 8,000  Level Atlanta Center
12:38AM 36.4461 -81.4578 346° North 172 198 8,000  Level Atlanta Center
12:39AM 36.4883 -81.4772 340° North 167 192 8,000  Level Atlanta Center
12:40AM 36.5325 -81.4939 343° North 167 192 8,000  Level Atlanta Center
12:41AM 36.5744 -81.5131 340° North 167 192 8,000  Level Atlanta Center
12:42AM 36.6186 -81.5300 343° North 167 192 8,100  Climbing Atlanta Center
12:43AM 36.6608 -81.5467 342° North 167 192 8,100 -60 Level Atlanta Center
12:44AM 36.7050 -81.5711 336° Northwest 167 192 8,000 -60 Descending Atlanta Center
12:45AM 36.7492 -81.5881 343° North 167 192 8,000  Level Atlanta Center
12:46AM 36.7953 -81.6072 342° North 173 199 8,100  Climbing Atlanta Center
12:47AM 36.8394 -81.6292 338° Northwest 173 199 8,000  Descending Atlanta Center
12:48AM 36.9108 -81.6542 344° North 179 206 8,100  Climbing Indianapolis Center
12:49AM 36.9556 -81.6747 340° North 173 199 8,000 -60 Descending Indianapolis Center
12:50AM 37.0047 -81.6939 343° North 180 207 8,000  Level Indianapolis Center
12:51AM 37.0500 -81.7133 341° North 173 199 8,000  Level Indianapolis Center
12:52AM 37.0953 -81.7322 342° North 170 196 8,000  Level Indianapolis Center
12:53AM 37.1408 -81.7519 341° North 172 198 8,000  Level Indianapolis Center
12:54AM 37.1867 -81.7711 342° North 174 200 8,000  Level Indianapolis Center
12:55AM 37.2328 -81.7908 341° North 175 201 8,000  Level Indianapolis Center
12:56AM 37.2783 -81.8106 341° North 172 198 8,000  Level Indianapolis Center
12:57AM 37.3236 -81.8294 342° North 172 198 8,000  Level Indianapolis Center
12:58AM 37.3689 -81.8483 342° North 171 197 8,000  Level Indianapolis Center
12:59AM 37.4139 -81.8675 341° North 171 197 8,000  Level Indianapolis Center
01:00AM 37.4597 -81.8881 340° North 174 200 8,000  Level Indianapolis Center
01:01AM 37.5033 -81.9061 342° North 169 194 8,000  Level Indianapolis Center
01:02AM 37.5475 -81.9239 342° North 168 193 8,000  Level Indianapolis Center
01:03AM 37.5917 -81.9428 341° North 168 193 8,000  Level Indianapolis Center
01:04AM 37.6367 -81.9622 341° North 170 196 8,000  Level Indianapolis Center
01:05AM 37.6806 -81.9822 340° North 169 194 8,000  Level Indianapolis Center
01:06AM 37.7250 -82.0006 342° North 169 194 8,000  Level Indianapolis Center
01:07AM 37.7689 -82.0189 342° North 168 193 8,000  Level Indianapolis Center
01:08AM 37.8117 -82.0383 340° North 165 190 8,100  Climbing Indianapolis Center
01:09AM 37.8542 -82.0558 342° North 163 188 8,000 -60 Descending Indianapolis Center
01:10AM 37.8978 -82.0747 341° North 166 191 8,000  Level Indianapolis Center
01:11AM 37.9400 -82.0925 342° North 162 186 8,000  Level Indianapolis Center
01:12AM 37.9839 -82.1125 340° North 165 190 8,000  Level Indianapolis Center
01:13AM 38.0283 -82.1308 342° North 167 192 8,000  Level Indianapolis Center
01:14AM 38.0733 -82.1506 341° North 169 194 8,000  Level Indianapolis Center
01:15AM 38.1181 -82.1700 341° North 172 198 8,000  Level Indianapolis Center
01:16AM 38.1625 -82.1886 342° North 170 196 8,000  Level Indianapolis Center
01:17AM 38.2078 -82.2086 341° North 171 197 8,000  Level Indianapolis Center
01:18AM 38.2522 -82.2269 342° North 169 194 8,000 -60 Level Indianapolis Center
01:19AM 38.2964 -82.2469 340° North 169 194 7,900  Descending Indianapolis Center
01:20AM 38.3419 -82.2656 342° North 171 197 8,000  Climbing Indianapolis Center
01:21AM 38.3867 -82.2867 340° North 171 197 8,000  Level Indianapolis Center
01:22AM 38.4314 -82.3061 341° North 170 196 8,000  Level Indianapolis Center
01:23AM 38.4753 -82.3253 341° North 167 192 8,000  Level Indianapolis Center
01:24AM 38.5211 -82.3444 342° North 171 197 8,000  Level Indianapolis Center
01:25AM 38.5661 -82.3647 341° North 173 199 8,000  Level Indianapolis Center
01:26AM 38.6114 -82.3844 341° North 173 199 8,000  Level Indianapolis Center
01:27AM 38.6558 -82.4058 339° North 170 196 8,000  Level Indianapolis Center
01:28AM 38.7028 -82.4250 342° North 176 203 8,000  Level Indianapolis Center
01:29AM 38.7475 -82.4464 340° North 174 200 8,000 -60 Level Indianapolis Center
01:30AM 38.7947 -82.4669 341° North 176 203 7,900  Descending Indianapolis Center
01:31AM 38.8397 -82.4861 342° North 173 199 8,000  Climbing Indianapolis Center
01:32AM 38.8858 -82.5069 341° North 175 201 8,000  Level Indianapolis Center
01:33AM 38.9317 -82.5286 340° North 174 200 8,000  Level Indianapolis Center
01:34AM 38.9781 -82.5497 341° North 176 203 8,000  Level Indianapolis Center
01:35AM 39.0258 -82.5700 342° North 179 206 8,000  Level Indianapolis Center
01:36AM 39.0725 -82.5886 343° North 177 204 8,000  Level Indianapolis Center
01:37AM 39.1175 -82.6117 338° Northwest 175 201 8,000  Level Indianapolis Center
01:38AM 39.1636 -82.6319 341° North 175 201 8,000  Level Indianapolis Center
01:39AM 39.2106 -82.6531 341° North 174 200 8,000  Level Indianapolis Center
01:40AM 39.2569 -82.6736 341° North 174 200 8,000  Level Indianapolis Center
01:41AM 39.3031 -82.6967 339° North 173 199 8,000  Level Indianapolis Center
01:42AM 39.3458 -82.7147 342° North 173 199 8,000  Level Indianapolis Center
01:43AM 39.3906 -82.7358 340° North 172 198 8,000  Level Indianapolis Center
01:44AM 39.4353 -82.7542 342° North 171 197 8,000 -480 Level Indianapolis Center
01:45AM 39.4819 -82.7756 341° North 176 203 7,100 -1,020 Descending Indianapolis Center
01:46AM 39.5369 -82.7981 342° North 194 223 6,000 -1,260 Descending Indianapolis Center
01:47AM 39.5833 -82.8275 334° Northwest 193 222 4,600 -1,260 Descending Indianapolis Center
01:48AM 39.6336 -82.8575 335° Northwest 194 223 3,500 -1,260 Descending Indianapolis Center
01:49AM 39.6797 -82.8844 336° Northwest 220 253 2,100 -900 Descending Indianapolis Center
01:50AM 39.7214 -82.9189 328° Northwest 171 197 1,800 -240 Descending Indianapolis Center
01:51AM 39.7556 -82.9417 333° Northwest 135 155 1,700 -360 Descending Indianapolis Center
01:52AM 39.7922 -82.9569 342° North 132 152 1,100 -360 Descending Indianapolis Center
01:53AM 39.8211 -82.9303 35° Northeast 134 154 1,000 -120 Descending Indianapolis Center
01:55AM 39.8138 -82.9278 339° North  Level Estimated